Orr, North Dakota
Current Conditions -  °F | °C
As of 2:58 PM on Saturday 25 Oct 2014 (Local Time) from KRDR Reporting Station
Clear Clear  
Wind Chill: 60°   Ceiling: Unl
Heat Index: 60°   Visibility: 10mi
Dew Point: 25°   Wind: 7mph
Humidity: 26%   Direction: 330°NNW
Pressure: 30.07"   Gusts: 22mph
Location:  48.1078°N, 97.7089°W
Report Text: KRDR 251958Z AUTO 33006G19KT 10SM CLR 16/M04 A3007 RMK AO2 SLP191 T01581040
Loading
Personal Weather Stations






























Interactive Weather Map New forecast layout! Learn more

10-Day Weather Forecast

Advertisements
Track Severe Weather on mobile